createdAt,value
2022-08-17T00:00:42.758Z,0.00
2022-08-17T00:01:15.078Z,0.00
2022-08-17T00:02:25.875Z,0.00
2022-08-17T00:03:15.004Z,0.00
2022-08-17T00:04:13.988Z,0.00
2022-08-17T00:05:14.004Z,0.00
2022-08-17T00:06:13.966Z,0.00
2022-08-17T00:07:13.960Z,0.00
2022-08-17T00:08:13.956Z,0.00
2022-08-17T00:09:18.387Z,0.00
2022-08-17T00:10:14.968Z,0.00
2022-08-17T00:11:13.912Z,0.00
2022-08-17T00:12:42.663Z,0.00
2022-08-17T00:13:14.889Z,0.00
2022-08-17T00:14:13.882Z,0.00
2022-08-17T00:15:13.883Z,0.00
2022-08-17T00:16:13.860Z,0.00
2022-08-17T00:17:13.861Z,0.00
2022-08-17T00:19:02.200Z,0.00
2022-08-17T00:19:14.828Z,0.00
2022-08-17T00:20:13.865Z,0.00
2022-08-17T00:21:13.821Z,0.00
2022-08-17T00:22:32.785Z,0.00
2022-08-17T00:23:14.812Z,0.00
2022-08-17T00:24:13.777Z,0.00
2022-08-17T00:25:13.781Z,0.00
2022-08-17T00:26:14.314Z,0.00
2022-08-17T00:27:13.748Z,0.00
2022-08-17T00:28:13.738Z,0.00
2022-08-17T00:29:20.101Z,0.00
2022-08-17T00:30:14.734Z,0.00
2022-08-17T00:31:13.715Z,0.00
2022-08-17T00:33:12.041Z,0.00
2022-08-17T00:33:17.063Z,0.00
2022-08-17T00:34:13.673Z,0.00
2022-08-17T00:35:13.678Z,0.00
2022-08-17T00:36:13.655Z,0.00
2022-08-17T00:37:14.223Z,0.00
2022-08-17T00:38:13.630Z,0.00
2022-08-17T00:39:13.632Z,0.00
2022-08-17T00:40:13.696Z,0.00
2022-08-17T00:41:13.598Z,0.00
2022-08-17T00:42:13.606Z,0.00
2022-08-17T00:43:13.579Z,0.00
2022-08-17T00:44:13.602Z,0.00
2022-08-17T00:45:13.579Z,0.00
2022-08-17T00:46:13.603Z,0.00
2022-08-17T00:47:13.538Z,0.00
2022-08-17T00:48:29.178Z,0.00
2022-08-17T00:49:14.530Z,0.00
2022-08-17T00:50:13.531Z,0.00
2022-08-17T00:51:13.496Z,0.00
2022-08-17T00:52:13.487Z,0.00
2022-08-17T00:53:13.484Z,0.00
2022-08-17T00:54:13.483Z,0.00
2022-08-17T00:55:13.460Z,0.00
2022-08-17T00:56:13.489Z,0.00
2022-08-17T00:57:13.478Z,0.00
2022-08-17T00:58:13.437Z,0.00
2022-08-17T00:59:13.417Z,0.00
2022-08-17T01:00:13.406Z,0.00
2022-08-17T01:01:21.825Z,0.00
2022-08-17T01:02:14.388Z,0.00
2022-08-17T01:03:13.375Z,0.00
2022-08-17T01:04:13.360Z,0.00
2022-08-17T01:05:13.358Z,0.00
2022-08-17T01:06:13.389Z,0.00
2022-08-17T01:07:13.347Z,0.00
2022-08-17T01:08:13.340Z,0.00
2022-08-17T01:09:13.310Z,0.00
2022-08-17T01:10:58.158Z,0.00
2022-08-17T01:11:14.304Z,0.00
2022-08-17T01:12:13.278Z,0.00
2022-08-17T01:13:13.267Z,0.00
2022-08-17T01:14:13.258Z,0.00
2022-08-17T01:15:13.262Z,0.00
2022-08-17T01:16:13.266Z,0.00
2022-08-17T01:17:13.245Z,0.00
2022-08-17T01:18:13.225Z,0.00
2022-08-17T01:19:13.222Z,0.00
2022-08-17T01:20:13.207Z,0.00
2022-08-17T01:21:13.202Z,0.00
2022-08-17T01:22:13.199Z,0.00
2022-08-17T01:23:13.172Z,0.00
2022-08-17T01:24:14.152Z,0.00
2022-08-17T01:25:13.157Z,0.00
2022-08-17T01:26:13.132Z,0.00
2022-08-17T01:27:13.119Z,0.00
2022-08-17T01:28:13.112Z,0.00
2022-08-17T01:29:14.106Z,0.00
2022-08-17T01:30:58.091Z,0.00
2022-08-17T01:31:14.079Z,0.00
2022-08-17T01:32:13.102Z,0.00
2022-08-17T01:33:13.100Z,0.00
2022-08-17T01:34:13.209Z,0.00
2022-08-17T01:35:13.057Z,0.00
2022-08-17T01:36:13.062Z,0.00
2022-08-17T01:37:13.017Z,0.00
2022-08-17T01:38:13.006Z,0.00
2022-08-17T01:39:12.998Z,0.00
2022-08-17T01:40:13.073Z,0.00
2022-08-17T01:41:12.986Z,0.00
2022-08-17T01:42:12.987Z,0.00
2022-08-17T01:43:12.962Z,0.00
2022-08-17T01:44:12.949Z,0.00
2022-08-17T01:45:12.953Z,0.00
2022-08-17T01:46:12.965Z,0.00
2022-08-17T01:47:12.930Z,0.00
2022-08-17T01:48:12.910Z,0.00
2022-08-17T01:49:12.919Z,0.00
2022-08-17T01:50:12.956Z,0.00
2022-08-17T01:51:12.885Z,0.00
2022-08-17T01:52:12.937Z,0.00
2022-08-17T01:53:12.851Z,0.00
2022-08-17T01:54:12.844Z,0.00
2022-08-17T01:55:12.867Z,0.00
2022-08-17T01:56:12.834Z,0.00
2022-08-17T01:57:12.820Z,0.00
2022-08-17T01:58:12.820Z,0.00
2022-08-17T01:59:12.786Z,0.00
2022-08-17T02:00:12.779Z,0.00
2022-08-17T02:01:12.849Z,0.00
2022-08-17T02:02:12.756Z,0.00
2022-08-17T02:03:13.753Z,0.00
2022-08-17T02:04:12.743Z,0.00
2022-08-17T02:05:12.728Z,0.00
2022-08-17T02:06:27.016Z,0.00
2022-08-17T02:07:13.704Z,0.00
2022-08-17T02:08:20.052Z,0.00
2022-08-17T02:09:16.600Z,0.00
2022-08-17T02:10:20.128Z,0.00
2022-08-17T02:11:13.674Z,0.00
2022-08-17T02:12:37.839Z,0.00
2022-08-17T02:13:13.639Z,0.00
2022-08-17T02:14:12.644Z,0.00
2022-08-17T02:15:12.621Z,0.00
2022-08-17T02:16:12.625Z,0.00
2022-08-17T02:17:12.599Z,0.00
2022-08-17T02:18:12.592Z,0.00
2022-08-17T02:19:12.587Z,0.00
2022-08-17T02:20:12.587Z,0.00
2022-08-17T02:21:12.588Z,0.00
2022-08-17T02:22:12.546Z,0.00
2022-08-17T02:23:12.535Z,0.00
2022-08-17T02:24:12.538Z,0.00
2022-08-17T02:25:12.517Z,0.00
2022-08-17T02:26:25.696Z,0.00
2022-08-17T02:27:13.519Z,0.00
2022-08-17T02:28:12.488Z,0.00
2022-08-17T02:29:12.472Z,0.00
2022-08-17T02:31:00.006Z,0.00
2022-08-17T02:31:13.492Z,0.00
2022-08-17T02:32:12.441Z,0.00
2022-08-17T02:33:13.431Z,0.00
2022-08-17T02:34:12.454Z,0.00
2022-08-17T02:35:12.602Z,0.00
2022-08-17T02:36:12.453Z,0.00
2022-08-17T02:37:12.587Z,0.00
2022-08-17T02:38:12.394Z,0.00
2022-08-17T02:39:12.367Z,0.00
2022-08-17T02:40:12.445Z,0.00
2022-08-17T02:41:12.347Z,0.00
2022-08-17T02:42:12.353Z,0.00
2022-08-17T02:43:12.324Z,0.00
2022-08-17T02:44:12.318Z,0.00
2022-08-17T02:45:12.313Z,0.00
2022-08-17T02:46:12.306Z,0.00
2022-08-17T02:47:12.305Z,0.00
2022-08-17T02:48:12.277Z,0.00
2022-08-17T02:49:12.264Z,0.00
2022-08-17T02:50:12.251Z,0.00
2022-08-17T02:51:12.263Z,0.00
2022-08-17T02:52:12.246Z,0.00
2022-08-17T02:53:12.223Z,0.00
2022-08-17T02:54:39.916Z,0.00
2022-08-17T02:55:13.204Z,0.00
2022-08-17T02:56:12.190Z,0.00
2022-08-17T02:57:12.204Z,0.00
2022-08-17T02:58:12.167Z,0.00
2022-08-17T02:59:12.184Z,0.00
2022-08-17T03:00:12.159Z,0.00
2022-08-17T03:01:12.162Z,0.00
2022-08-17T03:02:12.163Z,0.00
2022-08-17T03:03:12.128Z,0.00
2022-08-17T03:04:12.106Z,0.00
2022-08-17T03:05:12.093Z,0.00
2022-08-17T03:06:12.094Z,0.00
2022-08-17T03:07:12.159Z,0.00
2022-08-17T03:08:13.412Z,0.00
2022-08-17T03:09:12.068Z,0.00
2022-08-17T03:10:12.051Z,0.00
2022-08-17T03:11:12.051Z,0.00
2022-08-17T03:12:12.035Z,0.00
2022-08-17T03:13:12.016Z,0.00
2022-08-17T03:14:12.016Z,0.00
2022-08-17T03:15:11.993Z,0.00
2022-08-17T03:16:11.978Z,0.00
2022-08-17T03:17:15.899Z,0.00
2022-08-17T03:18:19.095Z,0.00
2022-08-17T03:19:12.949Z,0.00
2022-08-17T03:20:11.947Z,0.00
2022-08-17T03:21:11.932Z,0.00
2022-08-17T03:22:36.408Z,0.00
2022-08-17T03:23:12.908Z,0.00
2022-08-17T03:24:11.902Z,0.00
2022-08-17T03:25:11.917Z,0.00
2022-08-17T03:26:12.392Z,0.00
2022-08-17T03:27:11.910Z,0.00
2022-08-17T03:28:11.867Z,0.00
2022-08-17T03:29:11.844Z,0.00
2022-08-17T03:30:11.839Z,0.00
2022-08-17T03:31:11.824Z,0.00
2022-08-17T03:32:11.835Z,0.00
2022-08-17T03:33:11.804Z,0.00
2022-08-17T03:34:11.799Z,0.00
2022-08-17T03:35:11.811Z,0.00
2022-08-17T03:36:11.779Z,0.00
2022-08-17T03:37:11.779Z,0.00
2022-08-17T03:38:11.752Z,0.00
2022-08-17T03:39:11.739Z,0.00
2022-08-17T03:40:11.786Z,0.00
2022-08-17T03:41:11.720Z,0.00
2022-08-17T03:42:32.188Z,0.00
2022-08-17T03:43:12.704Z,0.00
2022-08-17T03:44:11.699Z,0.00
2022-08-17T03:45:14.106Z,1.00
2022-08-17T03:46:34.398Z,1.00
2022-08-17T03:47:12.687Z,1.00
2022-08-17T03:48:11.653Z,0.00
2022-08-17T03:49:11.641Z,0.00
2022-08-17T03:50:11.645Z,0.00
2022-08-17T03:51:14.780Z,2.00
2022-08-17T03:52:11.630Z,2.00
2022-08-17T03:53:11.597Z,2.00
2022-08-17T03:54:11.586Z,0.00
2022-08-17T03:55:11.575Z,0.00
2022-08-17T03:56:11.561Z,0.00
2022-08-17T03:57:12.295Z,4.00
2022-08-17T03:58:11.541Z,0.00
2022-08-17T03:59:11.544Z,2.00
2022-08-17T04:00:12.522Z,1.00
2022-08-17T04:01:11.624Z,1.00
2022-08-17T04:02:11.571Z,1.00
2022-08-17T04:03:11.513Z,3.00
2022-08-17T04:04:11.528Z,9.00
2022-08-17T04:05:11.531Z,9.00
2022-08-17T04:06:11.462Z,7.00
2022-08-17T04:07:11.464Z,10.00
2022-08-17T04:08:11.437Z,6.00
2022-08-17T04:09:11.429Z,21.00
2022-08-17T04:10:11.416Z,13.00
2022-08-17T04:11:11.406Z,9.00
2022-08-17T04:12:11.448Z,13.00
2022-08-17T04:13:11.400Z,20.00
2022-08-17T04:14:11.373Z,23.00
2022-08-17T04:15:11.366Z,26.00
2022-08-17T04:16:11.359Z,28.00
2022-08-17T04:17:11.354Z,26.00
2022-08-17T04:18:11.394Z,27.00
2022-08-17T04:19:11.326Z,29.00
2022-08-17T04:20:11.312Z,32.00
2022-08-17T04:21:11.375Z,41.00
2022-08-17T04:22:11.288Z,44.00
2022-08-17T04:23:12.308Z,52.00
2022-08-17T04:24:11.268Z,47.00
2022-08-17T04:25:11.270Z,52.00
2022-08-17T04:26:11.250Z,73.00
2022-08-17T04:27:12.238Z,82.00
2022-08-17T04:28:15.928Z,71.00
2022-08-17T04:29:12.220Z,88.00
2022-08-17T04:30:11.214Z,98.00
2022-08-17T04:31:11.198Z,104.00
2022-08-17T04:32:11.195Z,110.00
2022-08-17T04:33:11.329Z,133.00
2022-08-17T04:34:11.164Z,138.00
2022-08-17T04:35:11.163Z,145.00
2022-08-17T04:36:11.164Z,161.00
2022-08-17T04:37:11.142Z,173.00
2022-08-17T04:38:11.165Z,183.00
2022-08-17T04:39:11.139Z,197.00
2022-08-17T04:40:11.162Z,213.00
2022-08-17T04:41:11.098Z,219.00
2022-08-17T04:42:11.083Z,246.00
2022-08-17T04:43:11.090Z,248.00
2022-08-17T04:44:11.067Z,254.00
2022-08-17T04:45:11.054Z,270.00
2022-08-17T04:46:11.038Z,291.00
2022-08-17T04:47:11.029Z,301.00
2022-08-17T04:48:11.037Z,316.00
2022-08-17T04:49:11.027Z,334.00
2022-08-17T04:50:11.020Z,346.00
2022-08-17T04:51:10.987Z,373.00
2022-08-17T04:52:11.005Z,393.00
2022-08-17T04:53:11.983Z,408.00
2022-08-17T04:54:10.974Z,438.00
2022-08-17T04:55:10.944Z,466.00
2022-08-17T04:56:11.651Z,488.00
2022-08-17T04:57:11.927Z,502.00
2022-08-17T04:58:10.924Z,517.00
2022-08-17T04:59:10.907Z,536.00
2022-08-17T05:00:10.897Z,555.00
2022-08-17T05:01:10.975Z,577.00
2022-08-17T05:02:10.884Z,585.00
2022-08-17T05:03:10.879Z,601.00
2022-08-17T05:04:33.663Z,627.00
2022-08-17T05:05:11.842Z,646.00
2022-08-17T05:06:10.842Z,679.00
2022-08-17T05:07:10.847Z,696.00
2022-08-17T05:08:10.821Z,727.00
2022-08-17T05:09:10.798Z,751.00
2022-08-17T05:10:10.790Z,798.00
2022-08-17T05:11:10.778Z,834.00
2022-08-17T05:12:10.763Z,884.00
2022-08-17T05:13:10.790Z,931.00
2022-08-17T05:14:10.744Z,990.00
2022-08-17T05:15:10.736Z,1039.00
2022-08-17T05:16:10.736Z,1085.00
2022-08-17T05:17:11.414Z,1132.00
2022-08-17T05:18:10.739Z,1149.00
2022-08-17T05:19:10.700Z,1175.00
2022-08-17T05:20:10.681Z,1192.00
2022-08-17T05:21:10.675Z,1206.00
2022-08-17T05:22:10.666Z,1214.00
2022-08-17T05:23:10.666Z,1212.00
2022-08-17T05:24:16.743Z,1199.00
2022-08-17T05:25:11.642Z,1202.00
2022-08-17T05:26:13.556Z,1197.00
2022-08-17T05:27:14.316Z,1173.00
2022-08-17T05:28:11.615Z,1161.00
2022-08-17T05:29:10.597Z,1137.00
2022-08-17T05:30:10.581Z,1113.00
2022-08-17T05:31:10.577Z,1087.00
2022-08-17T05:32:38.089Z,1067.00
2022-08-17T05:33:11.556Z,1051.00
2022-08-17T05:34:10.534Z,1029.00
2022-08-17T05:35:10.523Z,1011.00
2022-08-17T05:36:10.512Z,997.00
2022-08-17T05:37:11.523Z,987.00
2022-08-17T05:38:10.509Z,977.00
2022-08-17T05:39:15.637Z,963.00
2022-08-17T05:40:11.638Z,956.00
2022-08-17T05:41:10.471Z,959.00
2022-08-17T05:42:10.457Z,940.00
2022-08-17T05:43:10.455Z,947.00
2022-08-17T05:44:10.436Z,946.00
2022-08-17T05:45:10.422Z,956.00
2022-08-17T05:46:10.418Z,962.00
2022-08-17T05:47:10.402Z,973.00
2022-08-17T05:48:10.408Z,982.00
2022-08-17T05:49:10.377Z,1001.00
2022-08-17T05:50:10.380Z,1041.00
2022-08-17T05:51:10.363Z,1082.00
2022-08-17T05:52:10.374Z,1138.00
2022-08-17T05:53:10.364Z,1170.00
2022-08-17T05:54:10.327Z,1214.00
2022-08-17T05:55:10.315Z,1237.00
2022-08-17T05:56:11.599Z,1243.00
2022-08-17T05:57:11.319Z,1242.00
2022-08-17T05:58:10.308Z,1244.00
2022-08-17T05:59:10.283Z,1267.00
2022-08-17T06:00:10.668Z,1252.00
2022-08-17T06:01:10.316Z,1240.00
2022-08-17T06:02:10.241Z,1230.00
2022-08-17T06:03:10.232Z,1229.00
2022-08-17T06:04:10.232Z,1216.00
2022-08-17T06:05:10.225Z,1220.00
2022-08-17T06:06:10.223Z,1219.00
2022-08-17T06:07:10.190Z,1222.00
2022-08-17T06:08:10.182Z,1236.00
2022-08-17T06:09:10.188Z,1224.00
2022-08-17T06:10:10.161Z,1228.00
2022-08-17T06:11:10.174Z,1223.00
2022-08-17T06:12:12.871Z,1221.00
2022-08-17T06:13:10.187Z,1219.00
2022-08-17T06:14:10.133Z,1221.00
2022-08-17T06:15:10.123Z,1210.00
2022-08-17T06:16:32.918Z,1199.00
2022-08-17T06:17:11.095Z,1164.00
2022-08-17T06:18:10.076Z,1139.00
2022-08-17T06:19:10.106Z,1124.00
2022-08-17T06:20:10.063Z,1122.00
2022-08-17T06:21:10.045Z,1116.00
2022-08-17T06:22:10.033Z,1104.00
2022-08-17T06:23:10.029Z,1102.00
2022-08-17T06:24:10.033Z,1102.00
2022-08-17T06:25:10.972Z,1112.00
2022-08-17T06:26:10.022Z,1119.00
2022-08-17T06:27:09.982Z,1145.00
2022-08-17T06:28:09.979Z,1150.00
2022-08-17T06:29:09.986Z,1165.00
2022-08-17T06:30:10.954Z,1184.00
2022-08-17T06:31:09.943Z,1199.00
2022-08-17T06:32:09.928Z,1219.00
2022-08-17T06:33:09.919Z,1252.00
2022-08-17T06:34:09.924Z,1291.00
2022-08-17T06:35:09.911Z,1356.00
2022-08-17T06:36:10.856Z,1417.00
2022-08-17T06:37:09.905Z,1484.00
2022-08-17T06:38:09.871Z,1542.00
2022-08-17T06:39:10.890Z,1591.00
2022-08-17T06:40:09.898Z,1606.00
2022-08-17T06:41:09.839Z,1610.00
2022-08-17T06:42:09.841Z,1598.00
2022-08-17T06:43:10.990Z,1574.00
2022-08-17T06:44:09.840Z,1557.00
2022-08-17T06:45:09.799Z,1543.00
2022-08-17T06:46:09.783Z,1530.00
2022-08-17T06:47:09.777Z,1520.00
2022-08-17T06:48:09.767Z,1509.00
2022-08-17T06:49:09.770Z,1516.00
2022-08-17T06:50:09.783Z,1514.00
2022-08-17T06:51:09.743Z,1489.00
2022-08-17T06:52:09.745Z,1479.00
2022-08-17T06:53:09.713Z,1439.00
2022-08-17T06:54:09.728Z,1413.00
2022-08-17T06:55:09.695Z,1390.00
2022-08-17T06:56:10.702Z,1371.00
2022-08-17T06:57:09.676Z,1323.00
2022-08-17T06:58:16.219Z,1290.00
2022-08-17T06:59:10.666Z,1250.00
2022-08-17T07:00:09.637Z,1247.00
2022-08-17T07:01:09.758Z,1256.00
2022-08-17T07:02:09.640Z,1276.00
2022-08-17T07:03:10.026Z,1292.00
2022-08-17T07:04:11.806Z,1308.00
2022-08-17T07:05:09.599Z,1333.00
2022-08-17T07:06:09.575Z,1354.00
2022-08-17T07:07:09.565Z,1375.00
2022-08-17T07:08:09.555Z,1385.00
2022-08-17T07:09:09.555Z,1358.00
2022-08-17T07:10:09.534Z,1324.00
2022-08-17T07:11:09.528Z,1280.00
2022-08-17T07:12:09.512Z,1239.00
2022-08-17T07:13:09.503Z,1218.00
2022-08-17T07:14:11.842Z,1223.00
2022-08-17T07:15:10.485Z,1242.00
2022-08-17T07:16:09.481Z,1271.00
2022-08-17T07:17:09.464Z,1268.00
2022-08-17T07:18:09.467Z,1258.00
2022-08-17T07:19:11.036Z,1238.00
2022-08-17T07:20:09.445Z,1228.00
2022-08-17T07:21:11.906Z,1233.00
2022-08-17T07:22:09.410Z,1223.00
2022-08-17T07:23:09.402Z,1239.00
2022-08-17T07:24:09.406Z,1250.00
2022-08-17T07:25:10.413Z,1324.00
2022-08-17T07:26:10.384Z,1351.00
2022-08-17T07:27:09.382Z,1374.00
2022-08-17T07:28:09.367Z,1410.00
2022-08-17T07:29:09.413Z,1441.00
2022-08-17T07:30:10.840Z,1499.00
2022-08-17T07:31:09.321Z,1544.00
2022-08-17T07:32:09.317Z,1588.00
2022-08-17T07:33:09.295Z,1650.00
2022-08-17T07:34:09.340Z,1719.00
2022-08-17T07:35:10.874Z,1773.00
2022-08-17T07:36:09.260Z,1854.00
2022-08-17T07:37:09.252Z,1946.00
2022-08-17T07:38:24.266Z,2026.00
2022-08-17T07:39:10.240Z,2086.00
2022-08-17T07:40:15.797Z,2144.00
2022-08-17T07:41:10.208Z,2172.00
2022-08-17T07:42:09.201Z,2174.00
2022-08-17T07:43:09.191Z,2164.00
2022-08-17T07:44:10.897Z,2148.00
2022-08-17T07:45:09.171Z,2145.00
2022-08-17T07:46:09.159Z,2135.00
2022-08-17T07:47:09.163Z,2128.00
2022-08-17T07:48:09.145Z,2131.00
2022-08-17T07:49:09.144Z,2134.00
2022-08-17T07:50:09.129Z,2129.00
2022-08-17T07:51:09.131Z,2115.00
2022-08-17T07:52:24.078Z,2115.00
2022-08-17T07:53:10.086Z,2113.00
2022-08-17T07:54:14.391Z,2124.00
2022-08-17T07:55:10.066Z,2151.00
2022-08-17T07:56:09.058Z,2187.00
2022-08-17T07:57:09.046Z,2241.00
2022-08-17T07:58:09.036Z,2309.00
2022-08-17T07:59:09.027Z,2381.00
2022-08-17T08:00:12.819Z,2430.00
2022-08-17T08:01:10.007Z,2487.00
2022-08-17T08:02:10.260Z,2544.00
2022-08-17T08:03:08.991Z,2571.00
2022-08-17T08:04:08.985Z,2574.00
2022-08-17T08:05:09.986Z,2583.00
2022-08-17T08:06:08.979Z,2575.00
2022-08-17T08:07:08.945Z,2567.00
2022-08-17T08:08:08.932Z,2587.00
2022-08-17T08:09:08.922Z,2614.00
2022-08-17T08:10:08.941Z,2630.00
2022-08-17T08:11:08.901Z,2663.00
2022-08-17T08:12:08.896Z,2687.00
2022-08-17T08:13:14.202Z,2705.00
2022-08-17T08:14:08.892Z,2710.00
2022-08-17T08:15:08.893Z,2646.00
2022-08-17T08:16:08.871Z,2642.00
2022-08-17T08:17:09.369Z,2635.00
2022-08-17T08:18:08.846Z,2593.00
2022-08-17T08:19:08.837Z,2544.00
2022-08-17T08:20:51.337Z,2552.00
2022-08-17T08:21:09.824Z,2695.00
2022-08-17T08:22:08.794Z,2867.00
2022-08-17T08:23:08.781Z,2958.00
2022-08-17T08:24:08.771Z,2914.00
2022-08-17T08:25:08.773Z,2781.00
2022-08-17T08:26:08.751Z,2634.00
2022-08-17T08:27:08.749Z,2466.00
2022-08-17T08:28:08.757Z,2260.00
2022-08-17T08:29:08.747Z,2016.00
2022-08-17T08:30:08.753Z,1808.00
2022-08-17T08:31:08.718Z,1663.00
2022-08-17T08:32:08.690Z,1574.00
2022-08-17T08:33:08.680Z,1498.00
2022-08-17T08:34:08.673Z,1509.00
2022-08-17T08:35:09.705Z,1572.00
2022-08-17T08:36:08.648Z,1660.00
2022-08-17T08:37:17.193Z,1803.00
2022-08-17T08:38:09.626Z,1935.00
2022-08-17T08:39:08.622Z,2080.00
2022-08-17T08:40:08.788Z,2220.00
2022-08-17T08:41:08.615Z,2349.00
2022-08-17T08:42:08.611Z,2435.00
2022-08-17T08:43:08.579Z,2520.00
2022-08-17T08:44:08.571Z,2562.00
2022-08-17T08:45:08.588Z,2562.00
2022-08-17T08:46:08.547Z,2542.00
2022-08-17T08:47:08.538Z,2604.00
2022-08-17T08:48:22.919Z,2647.00
2022-08-17T08:49:12.234Z,2749.00
2022-08-17T08:50:08.526Z,2822.00
2022-08-17T08:51:09.517Z,2873.00
2022-08-17T08:52:08.516Z,2830.00
2022-08-17T08:53:08.480Z,2736.00
2022-08-17T08:54:08.470Z,2514.00
2022-08-17T08:55:08.537Z,2340.00
2022-08-17T08:56:08.466Z,2150.00
2022-08-17T08:57:28.975Z,2067.00
2022-08-17T08:59:20.170Z,0.00
2022-08-17T09:00:20.209Z,1922.00
2022-08-17T09:01:20.202Z,1894.00
2022-08-17T09:02:20.239Z,1868.00
2022-08-17T09:03:20.089Z,1857.00
2022-08-17T09:04:25.101Z,1863.00
2022-08-17T09:05:21.161Z,1920.00
2022-08-17T09:06:37.345Z,1971.00
2022-08-17T09:07:21.043Z,2019.00
2022-08-17T09:08:20.039Z,2105.00
2022-08-17T09:09:20.027Z,2192.00
2022-08-17T09:10:20.023Z,2264.00
2022-08-17T09:11:20.003Z,2345.00
2022-08-17T09:12:20.067Z,2462.00
2022-08-17T09:13:19.983Z,2605.00
2022-08-17T09:14:21.151Z,2783.00
2022-08-17T09:15:20.025Z,3020.00
2022-08-17T09:16:19.951Z,3278.00
2022-08-17T09:17:19.940Z,3486.00
2022-08-17T09:19:00.309Z,3731.00
2022-08-17T09:19:20.927Z,3898.00
2022-08-17T09:20:27.963Z,3941.00
2022-08-17T09:21:20.904Z,3911.00
2022-08-17T09:22:19.967Z,3850.00
2022-08-17T09:23:19.878Z,3777.00
2022-08-17T09:24:20.721Z,3802.00
2022-08-17T09:25:19.882Z,3827.00
2022-08-17T09:26:19.854Z,3882.00
2022-08-17T09:27:19.839Z,3867.00
2022-08-17T09:28:19.842Z,3789.00
2022-08-17T09:29:19.816Z,3660.00
2022-08-17T09:30:19.841Z,3574.00
2022-08-17T09:31:19.794Z,3469.00
2022-08-17T09:32:19.808Z,3486.00
2022-08-17T09:33:19.769Z,3493.00
2022-08-17T09:34:19.764Z,3521.00
2022-08-17T09:35:19.764Z,3609.00
2022-08-17T09:36:19.737Z,3731.00
2022-08-17T09:37:19.738Z,3863.00
2022-08-17T09:38:19.722Z,4006.00
2022-08-17T09:39:19.710Z,4077.00
2022-08-17T09:40:19.804Z,4260.00
2022-08-17T09:41:19.690Z,4439.00
2022-08-17T09:42:19.690Z,4550.00
2022-08-17T09:43:19.663Z,4554.00
2022-08-17T09:44:23.626Z,4552.00
2022-08-17T09:45:19.656Z,4553.00
2022-08-17T09:46:19.632Z,4581.00
2022-08-17T09:47:19.623Z,4578.00
2022-08-17T09:48:19.611Z,4651.00
2022-08-17T09:49:24.637Z,4725.00
2022-08-17T09:51:03.609Z,4835.00
2022-08-17T09:51:20.582Z,4960.00
2022-08-17T09:52:19.567Z,5074.00
2022-08-17T09:53:19.558Z,5150.00
2022-08-17T09:54:38.018Z,5212.00
2022-08-17T09:55:20.553Z,5266.00
2022-08-17T09:56:19.525Z,5305.00
2022-08-17T09:57:29.911Z,5368.00
2022-08-17T09:58:21.802Z,5444.00
2022-08-17T09:59:20.505Z,5472.00
2022-08-17T10:00:19.504Z,5472.00
2022-08-17T10:01:19.510Z,5439.00
2022-08-17T10:02:19.461Z,5391.00
2022-08-17T10:03:19.458Z,5383.00
2022-08-17T10:04:20.316Z,5373.00
2022-08-17T10:05:19.477Z,5393.00
2022-08-17T10:06:22.109Z,5404.00
2022-08-17T10:07:19.450Z,5384.00
2022-08-17T10:08:21.930Z,5352.00
2022-08-17T10:09:19.391Z,5313.00
2022-08-17T10:10:19.381Z,5298.00
2022-08-17T10:11:19.387Z,5281.00
2022-08-17T10:12:19.362Z,5237.00
2022-08-17T10:13:19.354Z,5186.00
2022-08-17T10:14:36.237Z,5161.00
2022-08-17T10:15:20.362Z,5236.00
2022-08-17T10:16:19.361Z,5414.00
2022-08-17T10:17:19.328Z,5538.00
2022-08-17T10:18:20.109Z,5569.00
2022-08-17T10:19:19.288Z,5553.00
2022-08-17T10:20:19.275Z,5477.00
2022-08-17T10:21:19.279Z,5418.00
2022-08-17T10:22:35.010Z,5404.00
2022-08-17T10:23:20.263Z,5357.00
2022-08-17T10:24:19.235Z,5293.00
2022-08-17T10:25:23.873Z,5169.00
2022-08-17T10:26:19.239Z,5044.00
2022-08-17T10:27:19.220Z,4885.00
2022-08-17T10:28:20.375Z,4624.00
2022-08-17T10:29:19.182Z,4492.00
2022-08-17T10:30:19.175Z,4400.00
2022-08-17T10:31:35.868Z,4358.00
2022-08-17T10:32:20.154Z,4384.00
2022-08-17T10:33:19.140Z,4390.00
2022-08-17T10:34:19.135Z,4413.00
2022-08-17T10:35:19.121Z,4450.00
2022-08-17T10:36:19.123Z,4494.00
2022-08-17T10:37:19.121Z,4584.00
2022-08-17T10:38:19.093Z,4645.00
2022-08-17T10:39:20.099Z,4706.00
2022-08-17T10:40:19.147Z,4755.00
2022-08-17T10:41:19.076Z,4806.00
2022-08-17T10:42:32.287Z,4835.00
2022-08-17T10:43:20.034Z,4902.00
2022-08-17T10:44:39.280Z,4970.00
2022-08-17T10:45:20.040Z,5045.00
2022-08-17T10:46:30.282Z,5107.00
2022-08-17T10:47:19.992Z,5170.00
2022-08-17T10:48:18.984Z,5224.00
2022-08-17T10:49:18.980Z,5265.00
2022-08-17T10:50:18.994Z,5331.00
2022-08-17T10:51:18.967Z,5415.00
2022-08-17T10:52:18.942Z,5535.00
2022-08-17T10:53:20.022Z,5736.00
2022-08-17T10:54:18.932Z,6097.00
2022-08-17T10:55:18.910Z,6408.00
2022-08-17T10:56:18.909Z,6469.00
2022-08-17T10:57:18.890Z,6470.00
2022-08-17T10:58:18.877Z,6364.00
2022-08-17T10:59:18.871Z,6305.00
2022-08-17T11:00:18.861Z,6101.00
2022-08-17T11:01:18.935Z,6011.00
2022-08-17T11:02:18.849Z,5987.00
2022-08-17T11:03:18.833Z,5940.00
2022-08-17T11:04:18.843Z,5866.00
2022-08-17T11:05:18.807Z,5744.00
2022-08-17T11:06:18.807Z,5654.00
2022-08-17T11:07:18.792Z,5728.00
2022-08-17T11:08:18.791Z,5804.00
2022-08-17T11:09:18.764Z,5905.00
2022-08-17T11:10:18.839Z,6222.00
2022-08-17T11:11:18.771Z,6487.00
2022-08-17T11:12:18.743Z,6560.00
2022-08-17T11:13:18.730Z,6717.00
2022-08-17T11:14:18.721Z,7157.00
2022-08-17T11:15:18.737Z,7405.00
2022-08-17T11:16:18.695Z,7057.00
2022-08-17T11:17:18.703Z,7525.00
2022-08-17T11:18:18.676Z,7002.00
2022-08-17T11:19:18.663Z,7230.00
2022-08-17T11:20:18.724Z,7174.00
2022-08-17T11:21:18.652Z,7439.00
2022-08-17T11:22:18.643Z,7576.00
2022-08-17T11:23:18.617Z,7385.00
2022-08-17T11:24:18.610Z,6890.00
2022-08-17T11:25:18.603Z,6582.00
2022-08-17T11:26:18.588Z,6459.00
2022-08-17T11:27:18.589Z,6595.00
2022-08-17T11:28:18.569Z,7092.00
2022-08-17T11:29:18.562Z,7492.00
2022-08-17T11:30:18.554Z,7235.00
2022-08-17T11:31:18.553Z,6845.00
2022-08-17T11:32:18.609Z,6811.00
2022-08-17T11:33:18.516Z,5912.00
2022-08-17T11:34:18.525Z,6045.00
2022-08-17T11:35:18.496Z,5649.00
2022-08-17T11:36:18.490Z,6550.00
2022-08-17T11:37:18.489Z,5927.00
2022-08-17T11:38:18.469Z,5599.00
2022-08-17T11:39:18.454Z,5346.00
2022-08-17T11:40:18.519Z,5236.00
2022-08-17T11:41:18.432Z,5694.00
2022-08-17T11:42:18.458Z,5082.00
2022-08-17T11:43:18.418Z,5023.00
2022-08-17T11:44:18.404Z,5215.00
2022-08-17T11:45:31.587Z,6026.00
2022-08-17T11:46:19.381Z,6626.00
2022-08-17T11:47:18.385Z,6737.00
2022-08-17T11:48:27.803Z,5271.00
2022-08-17T11:49:19.365Z,5593.00
2022-08-17T11:50:18.342Z,5385.00
2022-08-17T11:51:18.326Z,5156.00
2022-08-17T11:52:18.355Z,5845.00
2022-08-17T11:53:18.317Z,5920.00
2022-08-17T11:54:34.572Z,7392.00
2022-08-17T11:55:35.036Z,7365.00
2022-08-17T11:56:19.279Z,7144.00
2022-08-17T11:57:18.275Z,7207.00
2022-08-17T11:58:18.270Z,7239.00
2022-08-17T11:59:18.272Z,5956.00
2022-08-17T12:00:18.231Z,5079.00
2022-08-17T12:01:18.222Z,5043.00
2022-08-17T12:02:18.225Z,5635.00
2022-08-17T12:03:18.226Z,6470.00
2022-08-17T12:04:18.294Z,5845.00
2022-08-17T12:05:18.176Z,6428.00
2022-08-17T12:06:18.180Z,5602.00
2022-08-17T12:07:18.179Z,5002.00
2022-08-17T12:08:18.161Z,4510.00
2022-08-17T12:09:18.136Z,5162.00
2022-08-17T12:10:18.179Z,5342.00
2022-08-17T12:11:18.124Z,5748.00
2022-08-17T12:12:19.146Z,5613.00
2022-08-17T12:13:18.099Z,5055.00
2022-08-17T12:14:22.487Z,5926.00
2022-08-17T12:15:19.085Z,7871.00
2022-08-17T12:16:18.064Z,7899.00
2022-08-17T12:17:22.426Z,6889.00
2022-08-17T12:18:19.055Z,8933.00
2022-08-17T12:19:18.033Z,6192.00
2022-08-17T12:20:18.099Z,6132.00
2022-08-17T12:21:18.359Z,8203.00
2022-08-17T12:22:18.036Z,9262.00
2022-08-17T12:23:18.085Z,9307.00
2022-08-17T12:24:17.987Z,8497.00
2022-08-17T12:25:17.980Z,5599.00
2022-08-17T12:26:17.959Z,6288.00
2022-08-17T12:27:17.971Z,5513.00
2022-08-17T12:28:20.125Z,8749.00
2022-08-17T12:29:35.646Z,5418.00
2022-08-17T12:30:18.927Z,5208.00
2022-08-17T12:31:17.907Z,5325.00
2022-08-17T12:32:17.945Z,5478.00